createdAt,value
2022-12-16T00:01:31.670Z,27.28
2022-12-16T00:04:02.148Z,27.27
2022-12-16T00:06:35.948Z,27.27
2022-12-16T00:09:06.301Z,27.27
2022-12-16T00:11:36.524Z,27.24
2022-12-16T00:14:06.842Z,27.25
2022-12-16T00:16:37.075Z,27.29
2022-12-16T00:19:07.338Z,27.22
2022-12-16T00:21:37.613Z,27.28
2022-12-16T00:24:07.713Z,27.27
2022-12-16T00:26:38.753Z,27.27
2022-12-16T00:29:09.352Z,27.27
2022-12-16T00:31:39.524Z,27.26
2022-12-16T00:34:09.825Z,27.29
2022-12-16T00:36:39.965Z,27.29
2022-12-16T00:39:10.017Z,27.35
2022-12-16T00:41:40.300Z,27.33
2022-12-16T00:44:10.614Z,27.31
2022-12-16T00:46:40.843Z,27.33
2022-12-16T00:49:10.841Z,27.36
2022-12-16T00:51:41.137Z,27.33
2022-12-16T00:54:11.400Z,27.34
2022-12-16T00:56:41.570Z,27.38
2022-12-16T00:59:11.699Z,27.40
2022-12-16T01:01:41.986Z,27.38
2022-12-16T01:04:12.234Z,27.40
2022-12-16T01:06:42.644Z,27.40
2022-12-16T01:09:12.651Z,27.42
2022-12-16T01:11:42.789Z,27.41
2022-12-16T01:14:12.784Z,27.42
2022-12-16T01:16:42.828Z,27.43
2022-12-16T01:19:13.321Z,27.46
2022-12-16T01:21:43.485Z,27.48
2022-12-16T01:24:14.587Z,27.44
2022-12-16T01:26:45.052Z,27.46
2022-12-16T01:29:15.267Z,27.47
2022-12-16T01:31:45.492Z,27.48
2022-12-16T01:34:15.625Z,27.49
2022-12-16T01:36:45.762Z,27.53
2022-12-16T01:39:15.831Z,27.50
2022-12-16T01:41:45.809Z,27.52
2022-12-16T01:44:22.662Z,27.50
2022-12-16T01:46:57.704Z,27.50
2022-12-16T01:49:42.840Z,27.50
2022-12-16T01:52:19.911Z,27.49
2022-12-16T01:54:57.377Z,27.50
2022-12-16T01:57:36.003Z,27.50
2022-12-16T02:00:10.147Z,27.47
2022-12-16T02:02:46.887Z,27.51
2022-12-16T02:05:22.793Z,27.56
2022-12-16T02:08:10.320Z,27.55
2022-12-16T02:10:45.783Z,27.56
2022-12-16T02:13:40.052Z,27.57
2022-12-16T02:16:40.119Z,27.59
2022-12-16T02:19:19.079Z,27.57
2022-12-16T02:22:07.169Z,27.56
2022-12-16T02:25:11.164Z,27.59
2022-12-16T02:28:01.333Z,27.60
2022-12-16T02:30:56.063Z,27.63
2022-12-16T02:33:46.566Z,27.62
2022-12-16T02:36:56.666Z,27.65
2022-12-16T02:39:45.320Z,27.64
2022-12-16T02:42:32.153Z,27.65
2022-12-16T02:45:10.472Z,27.65
2022-12-16T02:47:42.552Z,27.68
2022-12-16T02:50:24.393Z,27.68
2022-12-16T02:52:55.074Z,27.66
2022-12-16T02:55:35.500Z,27.68
2022-12-16T02:58:27.355Z,27.71
2022-12-16T03:01:15.365Z,27.74
2022-12-16T03:04:00.293Z,27.74
2022-12-16T03:06:34.495Z,27.74
2022-12-16T03:09:09.521Z,27.76
2022-12-16T03:11:42.762Z,27.74
2022-12-16T03:14:18.518Z,27.75
2022-12-16T03:16:50.798Z,27.76
2022-12-16T03:19:23.815Z,27.77
2022-12-16T03:22:09.941Z,27.76
2022-12-16T03:24:41.743Z,27.79
2022-12-16T03:27:14.573Z,27.82
2022-12-16T03:30:01.589Z,27.80
2022-12-16T03:32:45.971Z,27.79
2022-12-16T03:35:24.630Z,27.81
2022-12-16T03:37:59.025Z,27.81
2022-12-16T03:40:31.032Z,27.83
2022-12-16T03:43:03.932Z,27.83
2022-12-16T03:45:40.333Z,27.85
2022-12-16T03:48:15.110Z,27.85
2022-12-16T03:50:46.085Z,27.86
2022-12-16T03:53:16.340Z,27.89
2022-12-16T03:55:46.672Z,27.89
2022-12-16T03:58:17.252Z,27.86
2022-12-16T04:00:47.594Z,27.89
2022-12-16T04:03:17.869Z,27.87
2022-12-16T04:05:48.603Z,27.88
2022-12-16T04:08:18.788Z,27.90
2022-12-16T04:11:07.269Z,27.89
2022-12-16T04:13:55.810Z,27.90
2022-12-16T04:16:45.946Z,27.91
2022-12-16T04:19:51.199Z,27.92
2022-12-16T04:23:02.810Z,27.91
2022-12-16T04:25:37.071Z,27.91
2022-12-16T04:28:07.299Z,27.92
2022-12-16T04:30:37.400Z,27.93
2022-12-16T04:33:33.163Z,27.93
2022-12-16T04:36:22.115Z,27.94
2022-12-16T04:39:10.429Z,27.96
2022-12-16T04:41:59.032Z,27.95
2022-12-16T04:44:47.815Z,27.93
2022-12-16T04:47:47.073Z,27.96
2022-12-16T04:50:35.831Z,27.99
2022-12-16T04:53:24.174Z,27.98
2022-12-16T04:56:26.448Z,27.99
2022-12-16T04:59:15.013Z,28.01
2022-12-16T05:02:03.710Z,28.00
2022-12-16T05:04:52.179Z,28.02
2022-12-16T05:07:40.559Z,28.02
2022-12-16T05:10:29.799Z,28.03
2022-12-16T05:13:18.110Z,28.03
2022-12-16T05:16:06.750Z,28.06
2022-12-16T05:18:55.176Z,28.05
2022-12-16T05:21:43.765Z,28.07
2022-12-16T05:24:32.139Z,28.08
2022-12-16T05:27:20.419Z,28.08
2022-12-16T05:30:09.256Z,28.08
2022-12-16T05:32:57.758Z,28.09
2022-12-16T05:35:46.405Z,28.10
2022-12-16T05:38:35.189Z,28.10
2022-12-16T05:41:23.499Z,28.11
2022-12-16T05:44:11.820Z,28.13
2022-12-16T05:47:00.351Z,28.11
2022-12-16T05:49:49.236Z,28.13
2022-12-16T05:52:37.971Z,28.14
2022-12-16T05:55:32.249Z,28.16
2022-12-16T05:58:22.861Z,28.16
2022-12-16T06:01:11.305Z,28.15
2022-12-16T06:03:59.910Z,28.18
2022-12-16T06:06:48.591Z,28.17
2022-12-16T06:09:37.272Z,28.18
2022-12-16T06:12:26.565Z,28.19
2022-12-16T06:15:14.812Z,28.19
2022-12-16T06:18:07.916Z,28.20
2022-12-16T06:20:57.230Z,28.20
2022-12-16T06:23:45.552Z,28.20
2022-12-16T06:26:34.304Z,28.20
2022-12-16T06:29:22.899Z,28.20
2022-12-16T06:32:25.442Z,28.21
2022-12-16T06:35:14.166Z,28.22
2022-12-16T06:38:02.652Z,28.24
2022-12-16T06:40:51.011Z,28.23
2022-12-16T06:43:40.700Z,28.24
2022-12-16T06:46:29.158Z,28.25
2022-12-16T06:49:17.457Z,28.26
2022-12-16T06:52:06.043Z,28.25
2022-12-16T06:54:54.482Z,28.26
2022-12-16T06:57:42.857Z,28.27
2022-12-16T07:00:31.864Z,28.26
2022-12-16T07:03:20.323Z,28.28
2022-12-16T07:06:08.854Z,28.27
2022-12-16T07:08:57.466Z,28.28
2022-12-16T07:11:45.636Z,28.30
2022-12-16T07:14:34.298Z,28.29
2022-12-16T07:17:23.053Z,28.30
2022-12-16T07:20:11.576Z,28.31
2022-12-16T07:23:13.127Z,28.30
2022-12-16T07:26:06.168Z,28.32
2022-12-16T07:28:54.575Z,28.31
2022-12-16T07:31:43.350Z,28.33
2022-12-16T07:34:37.136Z,28.33
2022-12-16T07:37:29.002Z,28.34
2022-12-16T07:40:17.378Z,28.35
2022-12-16T07:43:08.922Z,28.35
2022-12-16T07:45:57.490Z,28.35
2022-12-16T07:48:45.895Z,28.35
2022-12-16T07:51:34.285Z,28.36
2022-12-16T07:54:23.746Z,28.36
2022-12-16T07:57:12.251Z,28.36
2022-12-16T08:00:00.844Z,28.38
2022-12-16T08:02:49.703Z,28.38
2022-12-16T08:05:39.698Z,28.39
2022-12-16T08:08:28.254Z,28.40
2022-12-16T08:11:16.599Z,28.42
2022-12-16T08:14:05.324Z,28.41
2022-12-16T08:16:53.651Z,28.42
2022-12-16T08:19:44.399Z,28.41
2022-12-16T08:22:32.782Z,28.42
2022-12-16T08:25:21.455Z,28.42
2022-12-16T08:28:17.789Z,28.41
2022-12-16T08:31:11.840Z,28.41
2022-12-16T08:34:00.304Z,28.42
2022-12-16T08:36:48.960Z,28.43
2022-12-16T08:39:37.597Z,28.44
2022-12-16T08:42:25.892Z,28.44
2022-12-16T08:45:14.465Z,28.46
2022-12-16T08:48:02.856Z,28.47
2022-12-16T08:50:51.457Z,28.46
2022-12-16T08:53:41.734Z,28.48
2022-12-16T08:56:30.396Z,28.47
2022-12-16T08:59:18.731Z,28.47
2022-12-16T09:02:07.507Z,28.49
2022-12-16T09:04:56.366Z,28.47
2022-12-16T09:07:44.867Z,28.49
2022-12-16T09:10:39.048Z,28.48
2022-12-16T09:13:36.829Z,28.48
2022-12-16T09:16:25.387Z,28.48
2022-12-16T09:19:13.998Z,28.50
2022-12-16T09:22:02.473Z,28.50
2022-12-16T09:24:50.927Z,28.50
2022-12-16T09:27:39.465Z,28.48
2022-12-16T09:30:28.812Z,28.49
2022-12-16T09:33:17.295Z,28.49
2022-12-16T09:36:05.828Z,28.49
2022-12-16T09:38:54.203Z,28.51
2022-12-16T09:41:48.958Z,28.51
2022-12-16T09:44:42.984Z,28.51
2022-12-16T09:47:40.715Z,28.50
2022-12-16T09:50:40.585Z,28.50
2022-12-16T09:53:55.999Z,28.51
2022-12-16T09:56:53.900Z,28.51
2022-12-16T09:59:50.379Z,28.51
2022-12-16T10:02:41.235Z,28.52
2022-12-16T10:05:35.253Z,28.53
2022-12-16T10:09:11.151Z,28.53
2022-12-16T10:12:08.345Z,28.52
2022-12-16T10:15:18.112Z,28.54
2022-12-16T10:18:07.594Z,28.54
2022-12-16T10:21:10.176Z,28.54
2022-12-16T10:24:01.680Z,28.54
2022-12-16T10:27:22.262Z,28.53
2022-12-16T10:30:10.770Z,28.53
2022-12-16T10:33:10.129Z,28.53
2022-12-16T10:36:11.803Z,28.53
2022-12-16T10:39:02.492Z,28.53
2022-12-16T10:42:05.463Z,28.51
2022-12-16T10:45:07.631Z,28.54
2022-12-16T10:47:55.985Z,28.53
2022-12-16T10:50:44.858Z,28.54
2022-12-16T10:53:47.759Z,28.52
2022-12-16T10:57:00.308Z,28.51
2022-12-16T10:59:59.871Z,28.52
2022-12-16T11:02:50.821Z,28.53
2022-12-16T11:05:56.664Z,28.52
2022-12-16T11:08:52.699Z,28.52
2022-12-16T11:11:49.346Z,28.52
2022-12-16T11:15:05.923Z,28.52
2022-12-16T11:17:57.056Z,28.53
2022-12-16T11:20:47.572Z,28.54
2022-12-16T11:23:41.875Z,28.55
2022-12-16T11:26:37.922Z,28.55
2022-12-16T11:29:35.420Z,28.56
2022-12-16T11:32:46.931Z,28.55
2022-12-16T11:35:39.707Z,28.56
2022-12-16T11:38:39.630Z,28.58
2022-12-16T11:41:30.223Z,28.56
2022-12-16T11:44:20.551Z,28.57
2022-12-16T11:47:09.777Z,28.60
2022-12-16T11:49:58.302Z,28.60
2022-12-16T11:52:47.516Z,28.59
2022-12-16T11:59:03.237Z,28.57
2022-12-16T12:02:03.506Z,28.59
2022-12-16T12:04:51.822Z,28.57
2022-12-16T12:07:59.162Z,28.59
2022-12-16T12:11:02.327Z,28.58
2022-12-16T12:14:06.018Z,28.58
2022-12-16T12:17:06.120Z,28.57
2022-12-16T12:20:35.120Z,28.60
2022-12-16T12:23:28.666Z,28.59
2022-12-16T12:26:34.808Z,28.60
2022-12-16T12:29:37.331Z,28.59
2022-12-16T12:32:45.715Z,28.59
2022-12-16T12:36:12.663Z,28.58
2022-12-16T12:39:13.064Z,28.59
2022-12-16T12:42:19.149Z,28.57
2022-12-16T12:45:46.039Z,28.57
2022-12-16T12:48:47.485Z,28.59
2022-12-16T12:51:35.861Z,28.56
2022-12-16T12:54:52.373Z,28.56
2022-12-16T12:57:47.028Z,28.57
2022-12-16T13:00:43.965Z,28.56
2022-12-16T13:04:03.905Z,28.57
2022-12-16T13:06:55.377Z,28.56
2022-12-16T13:09:55.651Z,28.57
2022-12-16T13:12:49.752Z,28.56
2022-12-16T13:16:00.456Z,28.56
2022-12-16T13:18:50.901Z,28.56
2022-12-16T13:21:57.946Z,28.58
2022-12-16T13:25:06.374Z,28.61
2022-12-16T13:28:16.066Z,28.59
2022-12-16T13:31:25.584Z,28.57
2022-12-16T13:34:15.825Z,28.58
2022-12-16T13:37:06.302Z,28.56
2022-12-16T13:39:55.137Z,28.58
2022-12-16T14:05:51.017Z,28.30
2022-12-16T14:08:43.218Z,28.26
2022-12-16T14:11:50.761Z,28.27
2022-12-16T14:14:56.144Z,28.29
2022-12-16T14:18:21.150Z,28.28
2022-12-16T14:21:20.125Z,28.33
2022-12-16T14:24:25.383Z,28.37
2022-12-16T14:27:14.013Z,28.38
2022-12-16T14:30:04.447Z,28.39
2022-12-16T14:32:56.600Z,28.39
2022-12-16T14:35:47.721Z,28.37
2022-12-16T14:38:43.425Z,28.42
2022-12-16T14:41:41.313Z,28.43
2022-12-16T14:44:44.429Z,28.45
2022-12-16T14:47:43.087Z,28.43
2022-12-16T14:50:51.639Z,28.42
2022-12-16T14:53:42.836Z,28.47
2022-12-16T14:56:42.342Z,28.50
2022-12-16T14:59:39.160Z,28.52
2022-12-16T15:02:48.465Z,28.55
2022-12-16T15:05:37.997Z,28.59
2022-12-16T15:08:27.581Z,28.56
2022-12-16T15:11:16.174Z,28.56
2022-12-16T15:14:05.004Z,28.56
2022-12-16T15:16:58.166Z,28.59
2022-12-16T15:19:47.178Z,28.62
2022-12-16T15:22:38.181Z,28.60
2022-12-16T15:25:27.231Z,28.60
2022-12-16T15:28:17.484Z,28.57
2022-12-16T15:31:08.139Z,28.59
2022-12-16T15:33:59.137Z,28.62
2022-12-16T15:36:54.738Z,28.62
2022-12-16T15:40:02.793Z,28.62
2022-12-16T15:42:54.561Z,28.64
2022-12-16T15:45:47.763Z,28.64
2022-12-16T15:48:41.095Z,28.64
2022-12-16T15:51:52.341Z,28.61
2022-12-16T15:54:45.951Z,28.60
2022-12-16T15:57:52.588Z,28.61
2022-12-16T16:00:51.247Z,28.59
2022-12-16T16:03:46.405Z,28.59
2022-12-16T16:06:46.761Z,28.59
2022-12-16T16:09:49.381Z,28.58
2022-12-16T16:12:41.196Z,28.58
2022-12-16T16:15:33.626Z,28.57
2022-12-16T16:18:27.111Z,28.59
2022-12-16T16:21:15.536Z,28.61
2022-12-16T16:24:03.693Z,28.58
2022-12-16T16:26:52.256Z,28.57
2022-12-16T16:29:40.778Z,28.57
2022-12-16T16:32:31.010Z,28.55
2022-12-16T16:35:19.489Z,28.54
2022-12-16T16:38:07.955Z,28.55
2022-12-16T16:41:04.617Z,28.52
2022-12-16T16:43:53.077Z,28.51
2022-12-16T16:46:41.809Z,28.52
2022-12-16T16:49:39.908Z,28.52
2022-12-16T16:52:36.716Z,28.50
2022-12-16T16:55:36.888Z,28.48
2022-12-16T16:58:37.085Z,28.48
2022-12-16T17:01:46.127Z,28.47
2022-12-16T17:04:34.788Z,28.48
2022-12-16T17:07:23.430Z,28.46
2022-12-16T17:10:12.102Z,28.46
2022-12-16T17:13:04.758Z,28.43
2022-12-16T17:15:57.373Z,28.41
2022-12-16T17:18:51.978Z,28.38
2022-12-16T17:21:40.793Z,28.40
2022-12-16T17:24:29.356Z,28.37
2022-12-16T17:27:17.824Z,28.39
2022-12-16T17:30:06.618Z,28.39
2022-12-16T17:32:55.014Z,28.38
2022-12-16T17:35:43.253Z,28.36
2022-12-16T17:38:33.221Z,28.37
2022-12-16T17:41:21.902Z,28.37
2022-12-16T17:44:13.977Z,28.36
2022-12-16T17:47:02.390Z,28.37
2022-12-16T17:49:50.941Z,28.37
2022-12-16T17:52:39.375Z,28.35
2022-12-16T17:55:28.621Z,28.33
2022-12-16T17:58:16.817Z,28.32
2022-12-16T18:01:05.210Z,28.30
2022-12-16T18:03:54.073Z,28.32
2022-12-16T18:06:42.700Z,28.27
2022-12-16T18:09:31.290Z,28.29
2022-12-16T18:12:19.970Z,28.27
2022-12-16T18:15:08.489Z,28.26
2022-12-16T18:17:57.120Z,28.25
2022-12-16T18:20:45.543Z,28.25
2022-12-16T18:23:34.337Z,28.24
2022-12-16T18:26:26.154Z,28.24
2022-12-16T18:29:14.006Z,28.24
2022-12-16T18:32:02.523Z,28.23
2022-12-16T18:34:50.848Z,28.24
2022-12-16T18:37:39.141Z,28.21
2022-12-16T18:40:28.259Z,28.21
2022-12-16T18:43:17.616Z,28.20
2022-12-16T18:46:12.885Z,28.19
2022-12-16T18:49:01.840Z,28.17
2022-12-16T18:51:50.548Z,28.19
2022-12-16T18:54:38.746Z,28.19
2022-12-16T18:57:27.186Z,28.21
2022-12-16T19:00:15.912Z,28.17
2022-12-16T19:03:04.602Z,28.19
2022-12-16T19:05:53.113Z,28.20
2022-12-16T19:08:41.520Z,28.19
2022-12-16T19:11:29.935Z,28.20
2022-12-16T19:14:18.379Z,28.18
2022-12-16T19:17:06.844Z,28.18
2022-12-16T19:19:55.048Z,28.17
2022-12-16T19:22:44.818Z,28.15
2022-12-16T19:25:33.246Z,28.15
2022-12-16T19:28:21.875Z,28.18
2022-12-16T19:31:17.835Z,28.18
2022-12-16T19:34:06.152Z,28.17
2022-12-16T19:36:54.707Z,28.17
2022-12-16T19:39:45.884Z,28.16
2022-12-16T19:42:34.394Z,28.14
2022-12-16T19:45:23.339Z,28.15
2022-12-16T19:48:11.769Z,28.16
2022-12-16T19:51:00.362Z,28.12
2022-12-16T19:53:49.205Z,28.13
2022-12-16T19:56:37.948Z,28.12
2022-12-16T19:59:26.402Z,28.10
2022-12-16T20:02:15.036Z,28.12
2022-12-16T20:05:03.537Z,28.15
2022-12-16T20:07:52.216Z,28.14
2022-12-16T20:10:45.000Z,28.15
2022-12-16T20:13:34.154Z,28.13
2022-12-16T20:16:27.036Z,28.14
2022-12-16T20:19:16.687Z,28.15
2022-12-16T20:22:07.540Z,28.13
2022-12-16T20:25:16.222Z,28.14
2022-12-16T20:28:04.665Z,28.14
2022-12-16T20:30:53.666Z,28.12
2022-12-16T20:33:44.397Z,28.12
2022-12-16T20:36:33.165Z,28.12
2022-12-16T20:39:21.567Z,28.10
2022-12-16T20:42:09.822Z,28.12
2022-12-16T20:44:58.149Z,28.17
2022-12-16T20:47:46.951Z,28.16
2022-12-16T20:50:35.594Z,28.12
2022-12-16T20:53:23.931Z,28.12
2022-12-16T20:56:12.254Z,28.10
2022-12-16T20:59:00.716Z,28.09
2022-12-16T21:02:21.265Z,28.13
2022-12-16T21:04:57.593Z,28.11
2022-12-16T21:07:46.390Z,28.10
2022-12-16T21:10:34.619Z,28.08
2022-12-16T21:13:31.023Z,28.11
2022-12-16T21:16:22.186Z,28.07
2022-12-16T21:19:10.904Z,28.06
2022-12-16T21:21:59.232Z,28.08
2022-12-16T21:24:47.641Z,28.06
2022-12-16T21:27:36.311Z,28.04
2022-12-16T21:30:25.227Z,28.07
2022-12-16T21:33:13.700Z,28.07
2022-12-16T21:36:02.360Z,28.08
2022-12-16T21:38:51.845Z,28.06
2022-12-16T21:41:40.522Z,28.07
2022-12-16T21:44:29.011Z,28.04
2022-12-16T21:47:17.311Z,28.07
2022-12-16T21:50:05.965Z,28.06
2022-12-16T21:52:54.251Z,28.06
2022-12-16T21:55:45.062Z,28.03
2022-12-16T21:58:33.857Z,28.06
2022-12-16T22:01:22.277Z,28.07
2022-12-16T22:04:10.932Z,28.07
2022-12-16T22:06:59.422Z,28.04
2022-12-16T22:09:48.538Z,28.02
2022-12-16T22:12:37.295Z,28.02
2022-12-16T22:15:26.132Z,28.03
2022-12-16T22:18:14.492Z,28.00
2022-12-16T22:21:03.139Z,27.98
2022-12-16T22:23:51.764Z,28.01
2022-12-16T22:26:40.509Z,28.01
2022-12-16T22:29:28.833Z,28.00
2022-12-16T22:32:17.037Z,28.02
2022-12-16T22:35:06.125Z,28.00
2022-12-16T22:37:54.792Z,28.02
2022-12-16T22:40:44.427Z,28.01
2022-12-16T22:43:32.602Z,28.02
2022-12-16T22:46:24.427Z,28.03
2022-12-16T22:49:13.084Z,27.99
2022-12-16T22:52:01.872Z,27.98
2022-12-16T22:54:50.558Z,28.01
2022-12-16T22:57:40.069Z,28.02
2022-12-16T23:00:29.471Z,28.03
2022-12-16T23:03:18.702Z,28.09
2022-12-16T23:06:07.680Z,28.10
2022-12-16T23:08:56.778Z,28.11
2022-12-16T23:11:53.071Z,28.13
2022-12-16T23:14:45.280Z,28.10
2022-12-16T23:17:33.905Z,28.13
2022-12-16T23:20:22.259Z,28.14
2022-12-16T23:23:11.083Z,28.13
2022-12-16T23:25:59.706Z,28.23
2022-12-16T23:28:48.173Z,28.04
2022-12-16T23:31:37.271Z,27.95
2022-12-16T23:34:25.938Z,27.86
2022-12-16T23:37:14.775Z,27.77
2022-12-16T23:40:03.115Z,27.74
2022-12-16T23:42:51.468Z,27.69
2022-12-16T23:45:42.930Z,27.72
2022-12-16T23:48:31.779Z,27.73
2022-12-16T23:51:20.437Z,27.64
2022-12-16T23:54:09.676Z,27.65
2022-12-16T23:56:58.695Z,27.60
2022-12-16T23:59:47.105Z,27.58
